sensor_id;sensor_type;location;lat;lon;timestamp;P1;durP1;ratioP1;P2;durP2;ratioP2
41721;SDS011;27407;24.142;-110.310;2024-03-23T00:52:52;5.50;;;1.67;;
41721;SDS011;27407;24.142;-110.310;2024-03-23T00:55:18;11.25;;;1.30;;
41721;SDS011;27407;24.142;-110.310;2024-03-23T00:57:45;17.15;;;2.13;;
41721;SDS011;27407;24.142;-110.310;2024-03-23T01:00:12;10.82;;;1.92;;
41721;SDS011;27407;24.142;-110.310;2024-03-23T01:02:39;24.27;;;2.28;;
41721;SDS011;27407;24.142;-110.310;2024-03-23T01:05:06;40.83;;;2.90;;
41721;SDS011;27407;24.142;-110.310;2024-03-23T01:07:32;22.05;;;2.10;;
41721;SDS011;27407;24.142;-110.310;2024-03-23T01:09:59;23.63;;;2.40;;
41721;SDS011;27407;24.142;-110.310;2024-03-23T01:12:25;9.10;;;1.60;;
41721;SDS011;27407;24.142;-110.310;2024-03-23T01:14:52;13.90;;;2.08;;
41721;SDS011;27407;24.142;-110.310;2024-03-23T01:17:19;23.48;;;2.58;;
41721;SDS011;27407;24.142;-110.310;2024-03-23T01:19:45;25.20;;;2.72;;
41721;SDS011;27407;24.142;-110.310;2024-03-23T01:22:12;23.75;;;2.60;;
41721;SDS011;27407;24.142;-110.310;2024-03-23T01:24:38;62.88;;;5.05;;
41721;SDS011;27407;24.142;-110.310;2024-03-23T01:27:05;39.78;;;4.00;;
41721;SDS011;27407;24.142;-110.310;2024-03-23T01:29:31;77.03;;;6.55;;
41721;SDS011;27407;24.142;-110.310;2024-03-23T01:31:58;37.67;;;4.60;;
41721;SDS011;27407;24.142;-110.310;2024-03-23T01:34:25;26.63;;;2.83;;
41721;SDS011;27407;24.142;-110.310;2024-03-23T01:36:52;20.63;;;3.05;;
41721;SDS011;27407;24.142;-110.310;2024-03-23T01:39:18;34.03;;;3.60;;
41721;SDS011;27407;24.142;-110.310;2024-03-23T01:41:45;38.38;;;3.55;;
41721;SDS011;27407;24.142;-110.310;2024-03-23T01:44:11;59.55;;;4.57;;
41721;SDS011;27407;24.142;-110.310;2024-03-23T01:46:38;198.73;;;11.20;;
41721;SDS011;27407;24.142;-110.310;2024-03-23T01:49:07;126.32;;;7.95;;
41721;SDS011;27407;24.142;-110.310;2024-03-23T01:51:34;35.00;;;3.55;;
41721;SDS011;27407;24.142;-110.310;2024-03-23T01:54:02;30.20;;;4.05;;
41721;SDS011;27407;24.142;-110.310;2024-03-23T01:56:30;33.65;;;3.55;;
41721;SDS011;27407;24.142;-110.310;2024-03-23T01:59:01;43.78;;;4.63;;
41721;SDS011;27407;24.142;-110.310;2024-03-23T02:01:28;80.80;;;6.28;;
41721;SDS011;27407;24.142;-110.310;2024-03-23T02:03:55;54.63;;;4.57;;
41721;SDS011;27407;24.142;-110.310;2024-03-23T02:06:22;85.40;;;7.95;;
41721;SDS011;27407;24.142;-110.310;2024-03-23T02:08:50;124.57;;;10.80;;
41721;SDS011;27407;24.142;-110.310;2024-03-23T02:11:17;181.98;;;13.77;;
41721;SDS011;27407;24.142;-110.310;2024-03-23T02:13:44;198.43;;;17.92;;
41721;SDS011;27407;24.142;-110.310;2024-03-23T02:16:10;103.40;;;12.35;;
41721;SDS011;27407;24.142;-110.310;2024-03-23T02:18:38;180.32;;;16.38;;
41721;SDS011;27407;24.142;-110.310;2024-03-23T02:21:05;157.95;;;13.57;;
41721;SDS011;27407;24.142;-110.310;2024-03-23T02:23:31;601.05;;;50.40;;
41721;SDS011;27407;24.142;-110.310;2024-03-23T02:25:58;344.58;;;26.15;;
41721;SDS011;27407;24.142;-110.310;2024-03-23T02:28:25;162.13;;;15.23;;
41721;SDS011;27407;24.142;-110.310;2024-03-23T02:30:51;164.40;;;16.02;;
41721;SDS011;27407;24.142;-110.310;2024-03-23T02:33:18;208.57;;;15.73;;
41721;SDS011;27407;24.142;-110.310;2024-03-23T02:35:45;202.82;;;19.42;;
41721;SDS011;27407;24.142;-110.310;2024-03-23T02:38:12;69.30;;;6.75;;
41721;SDS011;27407;24.142;-110.310;2024-03-23T02:40:38;54.90;;;6.78;;
41721;SDS011;27407;24.142;-110.310;2024-03-23T02:43:05;59.50;;;5.13;;
41721;SDS011;27407;24.142;-110.310;2024-03-23T02:45:31;57.03;;;4.10;;
41721;SDS011;27407;24.142;-110.310;2024-03-23T02:47:58;43.88;;;5.03;;
41721;SDS011;27407;24.142;-110.310;2024-03-23T02:50:25;48.55;;;4.82;;
41721;SDS011;27407;24.142;-110.310;2024-03-23T02:52:51;78.97;;;7.88;;
41721;SDS011;27407;24.142;-110.310;2024-03-23T02:55:18;30.70;;;4.40;;
41721;SDS011;27407;24.142;-110.310;2024-03-23T02:57:44;39.67;;;6.38;;
41721;SDS011;27407;24.142;-110.310;2024-03-23T03:00:12;21.10;;;4.65;;
41721;SDS011;27407;24.142;-110.310;2024-03-23T03:02:39;17.23;;;3.40;;
41721;SDS011;27407;24.142;-110.310;2024-03-23T03:05:05;25.05;;;5.10;;
41721;SDS011;27407;24.142;-110.310;2024-03-23T03:07:34;38.92;;;4.78;;
41721;SDS011;27407;24.142;-110.310;2024-03-23T03:10:00;64.03;;;6.53;;
41721;SDS011;27407;24.142;-110.310;2024-03-23T03:12:27;54.60;;;5.28;;
41721;SDS011;27407;24.142;-110.310;2024-03-23T03:14:53;116.28;;;8.45;;
41721;SDS011;27407;24.142;-110.310;2024-03-23T03:17:20;43.88;;;4.50;;
41721;SDS011;27407;24.142;-110.310;2024-03-23T03:19:47;50.55;;;4.78;;
41721;SDS011;27407;24.142;-110.310;2024-03-23T03:22:13;35.28;;;3.88;;
41721;SDS011;27407;24.142;-110.310;2024-03-23T03:24:40;50.47;;;5.05;;
41721;SDS011;27407;24.142;-110.310;2024-03-23T03:27:07;94.03;;;7.60;;
41721;SDS011;27407;24.142;-110.310;2024-03-23T03:29:35;72.78;;;5.88;;
41721;SDS011;27407;24.142;-110.310;2024-03-23T03:32:04;73.60;;;6.85;;
41721;SDS011;27407;24.142;-110.310;2024-03-23T03:34:31;35.70;;;4.80;;
41721;SDS011;27407;24.142;-110.310;2024-03-23T03:36:57;55.10;;;4.88;;
41721;SDS011;27407;24.142;-110.310;2024-03-23T03:39:25;347.92;;;27.10;;
41721;SDS011;27407;24.142;-110.310;2024-03-23T03:41:51;67.55;;;6.18;;
41721;SDS011;27407;24.142;-110.310;2024-03-23T03:44:18;60.03;;;5.10;;
41721;SDS011;27407;24.142;-110.310;2024-03-23T03:46:45;105.60;;;9.23;;
41721;SDS011;27407;24.142;-110.310;2024-03-23T03:49:11;65.95;;;7.45;;
41721;SDS011;27407;24.142;-110.310;2024-03-23T03:51:38;52.78;;;5.95;;
41721;SDS011;27407;24.142;-110.310;2024-03-23T03:54:05;59.35;;;5.93;;
41721;SDS011;27407;24.142;-110.310;2024-03-23T03:56:31;50.95;;;6.25;;
41721;SDS011;27407;24.142;-110.310;2024-03-23T03:58:58;60.28;;;6.20;;
41721;SDS011;27407;24.142;-110.310;2024-03-23T04:01:24;68.65;;;6.43;;
41721;SDS011;27407;24.142;-110.310;2024-03-23T04:03:51;76.25;;;6.13;;
41721;SDS011;27407;24.142;-110.310;2024-03-23T04:06:20;66.85;;;5.85;;
41721;SDS011;27407;24.142;-110.310;2024-03-23T04:08:47;42.72;;;5.68;;
41721;SDS011;27407;24.142;-110.310;2024-03-23T04:11:14;91.75;;;7.20;;
41721;SDS011;27407;24.142;-110.310;2024-03-23T04:13:40;50.40;;;6.53;;
41721;SDS011;27407;24.142;-110.310;2024-03-23T04:16:07;60.97;;;6.15;;
41721;SDS011;27407;24.142;-110.310;2024-03-23T04:18:37;29.45;;;5.45;;
41721;SDS011;27407;24.142;-110.310;2024-03-23T04:21:03;30.95;;;3.65;;
41721;SDS011;27407;24.142;-110.310;2024-03-23T04:23:30;66.00;;;4.85;;
41721;SDS011;27407;24.142;-110.310;2024-03-23T04:26:02;47.35;;;5.65;;
41721;SDS011;27407;24.142;-110.310;2024-03-23T04:28:29;32.05;;;3.60;;
41721;SDS011;27407;24.142;-110.310;2024-03-23T04:30:56;35.45;;;4.03;;
41721;SDS011;27407;24.142;-110.310;2024-03-23T04:33:22;23.15;;;3.10;;
41721;SDS011;27407;24.142;-110.310;2024-03-23T04:35:49;31.65;;;3.45;;
41721;SDS011;27407;24.142;-110.310;2024-03-23T04:38:16;43.92;;;3.92;;
41721;SDS011;27407;24.142;-110.310;2024-03-23T04:40:43;24.02;;;3.53;;
41721;SDS011;27407;24.142;-110.310;2024-03-23T04:43:09;48.75;;;6.63;;
41721;SDS011;27407;24.142;-110.310;2024-03-23T04:45:36;34.38;;;5.57;;
41721;SDS011;27407;24.142;-110.310;2024-03-23T04:48:03;44.03;;;7.22;;
41721;SDS011;27407;24.142;-110.310;2024-03-23T04:50:29;47.90;;;7.50;;
41721;SDS011;27407;24.142;-110.310;2024-03-23T04:52:56;39.55;;;5.10;;
41721;SDS011;27407;24.142;-110.310;2024-03-23T04:55:22;35.05;;;6.32;;
41721;SDS011;27407;24.142;-110.310;2024-03-23T04:57:49;44.60;;;5.27;;
41721;SDS011;27407;24.142;-110.310;2024-03-23T05:00:16;31.20;;;4.03;;
41721;SDS011;27407;24.142;-110.310;2024-03-23T05:02:43;21.97;;;4.10;;
41721;SDS011;27407;24.142;-110.310;2024-03-23T05:05:11;31.23;;;3.90;;
41721;SDS011;27407;24.142;-110.310;2024-03-23T05:07:37;23.77;;;3.30;;
41721;SDS011;27407;24.142;-110.310;2024-03-23T05:10:04;26.20;;;3.60;;
41721;SDS011;27407;24.142;-110.310;2024-03-23T05:12:35;24.40;;;3.00;;
41721;SDS011;27407;24.142;-110.310;2024-03-23T05:15:05;18.33;;;2.27;;
41721;SDS011;27407;24.142;-110.310;2024-03-23T05:17:35;15.27;;;2.60;;
41721;SDS011;27407;24.142;-110.310;2024-03-23T05:20:03;33.47;;;3.10;;
41721;SDS011;27407;24.142;-110.310;2024-03-23T05:22:37;16.13;;;3.13;;
41721;SDS011;27407;24.142;-110.310;2024-03-23T05:25:04;33.57;;;3.33;;
41721;SDS011;27407;24.142;-110.310;2024-03-23T05:27:31;20.20;;;2.30;;
41721;SDS011;27407;24.142;-110.310;2024-03-23T05:29:58;10.53;;;1.93;;
41721;SDS011;27407;24.142;-110.310;2024-03-23T05:32:25;27.90;;;2.77;;
41721;SDS011;27407;24.142;-110.310;2024-03-23T05:34:52;15.40;;;2.00;;
41721;SDS011;27407;24.142;-110.310;2024-03-23T05:37:22;11.93;;;2.17;;
41721;SDS011;27407;24.142;-110.310;2024-03-23T05:39:49;18.87;;;2.17;;
41721;SDS011;27407;24.142;-110.310;2024-03-23T05:42:16;25.00;;;2.07;;
41721;SDS011;27407;24.142;-110.310;2024-03-23T05:44:46;20.47;;;1.90;;
41721;SDS011;27407;24.142;-110.310;2024-03-23T05:47:13;29.20;;;2.47;;
41721;SDS011;27407;24.142;-110.310;2024-03-23T05:49:42;30.60;;;2.70;;
41721;SDS011;27407;24.142;-110.310;2024-03-23T05:52:09;34.50;;;3.47;;
41721;SDS011;27407;24.142;-110.310;2024-03-23T05:54:36;28.27;;;2.67;;
41721;SDS011;27407;24.142;-110.310;2024-03-23T05:57:03;14.33;;;2.20;;
41721;SDS011;27407;24.142;-110.310;2024-03-23T05:59:32;11.60;;;1.60;;
41721;SDS011;27407;24.142;-110.310;2024-03-23T06:01:59;10.87;;;1.63;;
41721;SDS011;27407;24.142;-110.310;2024-03-23T06:04:26;14.17;;;1.77;;
41721;SDS011;27407;24.142;-110.310;2024-03-23T06:06:52;8.87;;;1.77;;
41721;SDS011;27407;24.142;-110.310;2024-03-23T06:09:19;8.73;;;1.47;;
41721;SDS011;27407;24.142;-110.310;2024-03-23T06:11:45;11.67;;;1.80;;
41721;SDS011;27407;24.142;-110.310;2024-03-23T06:14:12;18.07;;;1.73;;
41721;SDS011;27407;24.142;-110.310;2024-03-23T06:16:39;13.57;;;1.80;;
41721;SDS011;27407;24.142;-110.310;2024-03-23T06:19:05;18.00;;;1.80;;
41721;SDS011;27407;24.142;-110.310;2024-03-23T06:21:32;11.30;;;1.67;;
41721;SDS011;27407;24.142;-110.310;2024-03-23T06:23:59;9.03;;;1.63;;
41721;SDS011;27407;24.142;-110.310;2024-03-23T06:26:26;10.87;;;1.73;;
41721;SDS011;27407;24.142;-110.310;2024-03-23T06:28:52;7.33;;;1.30;;
41721;SDS011;27407;24.142;-110.310;2024-03-23T06:31:19;15.93;;;2.00;;
41721;SDS011;27407;24.142;-110.310;2024-03-23T06:33:46;11.53;;;1.73;;
41721;SDS011;27407;24.142;-110.310;2024-03-23T06:36:12;8.47;;;1.50;;
41721;SDS011;27407;24.142;-110.310;2024-03-23T06:38:39;14.33;;;2.80;;
41721;SDS011;27407;24.142;-110.310;2024-03-23T06:41:05;9.87;;;1.43;;
41721;SDS011;27407;24.142;-110.310;2024-03-23T06:43:32;13.53;;;1.43;;
41721;SDS011;27407;24.142;-110.310;2024-03-23T06:45:59;10.37;;;1.80;;
41721;SDS011;27407;24.142;-110.310;2024-03-23T06:48:25;7.00;;;1.87;;
41721;SDS011;27407;24.142;-110.310;2024-03-23T06:50:55;12.10;;;1.63;;
41721;SDS011;27407;24.142;-110.310;2024-03-23T06:53:22;12.40;;;2.07;;
41721;SDS011;27407;24.142;-110.310;2024-03-23T06:55:50;16.53;;;1.93;;
41721;SDS011;27407;24.142;-110.310;2024-03-23T06:58:20;12.73;;;1.67;;
41721;SDS011;27407;24.142;-110.310;2024-03-23T07:00:47;6.67;;;1.80;;
41721;SDS011;27407;24.142;-110.310;2024-03-23T07:03:14;7.73;;;1.63;;
41721;SDS011;27407;24.142;-110.310;2024-03-23T07:05:42;12.20;;;1.40;;
41721;SDS011;27407;24.142;-110.310;2024-03-23T07:08:09;13.97;;;1.87;;
41721;SDS011;27407;24.142;-110.310;2024-03-23T07:10:38;11.40;;;1.87;;
41721;SDS011;27407;24.142;-110.310;2024-03-23T07:13:05;9.87;;;1.83;;
41721;SDS011;27407;24.142;-110.310;2024-03-23T07:15:32;10.30;;;1.47;;
41721;SDS011;27407;24.142;-110.310;2024-03-23T07:17:59;9.57;;;1.63;;
41721;SDS011;27407;24.142;-110.310;2024-03-23T07:20:25;5.30;;;1.00;;
41721;SDS011;27407;24.142;-110.310;2024-03-23T07:22:52;3.33;;;1.13;;
41721;SDS011;27407;24.142;-110.310;2024-03-23T07:25:19;6.10;;;1.23;;
41721;SDS011;27407;24.142;-110.310;2024-03-23T07:27:46;11.13;;;2.03;;
41721;SDS011;27407;24.142;-110.310;2024-03-23T07:30:13;9.63;;;1.30;;
41721;SDS011;27407;24.142;-110.310;2024-03-23T07:32:40;11.37;;;1.33;;
41721;SDS011;27407;24.142;-110.310;2024-03-23T07:35:06;14.90;;;2.20;;
41721;SDS011;27407;24.142;-110.310;2024-03-23T07:37:33;26.20;;;2.87;;
41721;SDS011;27407;24.142;-110.310;2024-03-23T07:40:00;15.00;;;1.83;;
41721;SDS011;27407;24.142;-110.310;2024-03-23T07:42:26;15.30;;;1.40;;
41721;SDS011;27407;24.142;-110.310;2024-03-23T07:44:53;3.80;;;1.13;;
41721;SDS011;27407;24.142;-110.310;2024-03-23T07:47:22;10.37;;;1.87;;
41721;SDS011;27407;24.142;-110.310;2024-03-23T07:49:48;16.27;;;2.70;;
41721;SDS011;27407;24.142;-110.310;2024-03-23T07:52:15;18.97;;;2.03;;
41721;SDS011;27407;24.142;-110.310;2024-03-23T07:54:42;18.13;;;2.33;;
41721;SDS011;27407;24.142;-110.310;2024-03-23T07:57:09;11.90;;;1.70;;
41721;SDS011;27407;24.142;-110.310;2024-03-23T07:59:35;8.60;;;1.30;;
41721;SDS011;27407;24.142;-110.310;2024-03-23T08:02:02;8.23;;;1.37;;
41721;SDS011;27407;24.142;-110.310;2024-03-23T08:04:29;11.97;;;1.70;;
41721;SDS011;27407;24.142;-110.310;2024-03-23T08:06:55;8.80;;;1.47;;
41721;SDS011;27407;24.142;-110.310;2024-03-23T08:09:22;8.53;;;1.20;;
41721;SDS011;27407;24.142;-110.310;2024-03-23T08:11:49;10.10;;;1.90;;
41721;SDS011;27407;24.142;-110.310;2024-03-23T08:14:15;4.87;;;1.03;;
41721;SDS011;27407;24.142;-110.310;2024-03-23T08:16:42;7.67;;;1.47;;
41721;SDS011;27407;24.142;-110.310;2024-03-23T08:19:14;6.00;;;1.83;;
41721;SDS011;27407;24.142;-110.310;2024-03-23T08:21:41;11.33;;;1.80;;
41721;SDS011;27407;24.142;-110.310;2024-03-23T08:24:07;9.60;;;1.47;;
41721;SDS011;27407;24.142;-110.310;2024-03-23T08:26:34;12.30;;;1.80;;
41721;SDS011;27407;24.142;-110.310;2024-03-23T08:29:03;4.67;;;1.47;;
41721;SDS011;27407;24.142;-110.310;2024-03-23T08:31:30;3.97;;;1.17;;
41721;SDS011;27407;24.142;-110.310;2024-03-23T08:33:56;5.07;;;1.30;;
41721;SDS011;27407;24.142;-110.310;2024-03-23T08:36:23;6.73;;;1.70;;
41721;SDS011;27407;24.142;-110.310;2024-03-23T08:38:49;6.47;;;1.53;;
41721;SDS011;27407;24.142;-110.310;2024-03-23T08:41:19;10.17;;;1.27;;
41721;SDS011;27407;24.142;-110.310;2024-03-23T08:43:45;12.97;;;1.97;;
41721;SDS011;27407;24.142;-110.310;2024-03-23T08:46:12;5.87;;;1.53;;
41721;SDS011;27407;24.142;-110.310;2024-03-23T08:48:41;6.50;;;1.33;;
41721;SDS011;27407;24.142;-110.310;2024-03-23T08:51:13;6.03;;;1.50;;
41721;SDS011;27407;24.142;-110.310;2024-03-23T08:53:41;4.73;;;1.50;;
41721;SDS011;27407;24.142;-110.310;2024-03-23T08:56:08;4.43;;;1.07;;
41721;SDS011;27407;24.142;-110.310;2024-03-23T08:58:36;9.13;;;1.60;;
41721;SDS011;27407;24.142;-110.310;2024-03-23T09:01:07;11.13;;;1.53;;
41721;SDS011;27407;24.142;-110.310;2024-03-23T09:03:35;22.60;;;2.67;;
41721;SDS011;27407;24.142;-110.310;2024-03-23T09:06:07;11.67;;;1.73;;
41721;SDS011;27407;24.142;-110.310;2024-03-23T09:08:34;9.20;;;1.50;;
41721;SDS011;27407;24.142;-110.310;2024-03-23T09:11:08;8.43;;;1.60;;
41721;SDS011;27407;24.142;-110.310;2024-03-23T09:13:36;8.47;;;1.70;;
41721;SDS011;27407;24.142;-110.310;2024-03-23T09:16:04;9.67;;;2.23;;
41721;SDS011;27407;24.142;-110.310;2024-03-23T09:18:32;27.70;;;2.07;;
41721;SDS011;27407;24.142;-110.310;2024-03-23T09:21:00;4.63;;;1.50;;
41721;SDS011;27407;24.142;-110.310;2024-03-23T09:23:29;5.20;;;1.70;;
41721;SDS011;27407;24.142;-110.310;2024-03-23T09:25:56;12.33;;;1.70;;
41721;SDS011;27407;24.142;-110.310;2024-03-23T09:28:22;9.30;;;1.80;;
41721;SDS011;27407;24.142;-110.310;2024-03-23T09:30:49;5.83;;;1.40;;
41721;SDS011;27407;24.142;-110.310;2024-03-23T09:33:16;8.27;;;1.07;;
41721;SDS011;27407;24.142;-110.310;2024-03-23T09:35:43;7.27;;;1.10;;
41721;SDS011;27407;24.142;-110.310;2024-03-23T09:38:12;12.60;;;1.50;;
41721;SDS011;27407;24.142;-110.310;2024-03-23T09:40:42;7.83;;;1.40;;
41721;SDS011;27407;24.142;-110.310;2024-03-23T09:43:09;6.73;;;1.27;;
41721;SDS011;27407;24.142;-110.310;2024-03-23T09:45:39;5.37;;;1.30;;
41721;SDS011;27407;24.142;-110.310;2024-03-23T09:48:07;5.97;;;1.33;;
41721;SDS011;27407;24.142;-110.310;2024-03-23T09:50:40;19.27;;;1.80;;
41721;SDS011;27407;24.142;-110.310;2024-03-23T09:53:10;17.50;;;1.70;;
41721;SDS011;27407;24.142;-110.310;2024-03-23T09:55:41;6.50;;;1.50;;
41721;SDS011;27407;24.142;-110.310;2024-03-23T09:58:08;12.60;;;2.00;;
41721;SDS011;27407;24.142;-110.310;2024-03-23T10:00:38;18.60;;;1.73;;
41721;SDS011;27407;24.142;-110.310;2024-03-23T10:03:05;19.17;;;1.93;;
41721;SDS011;27407;24.142;-110.310;2024-03-23T10:05:32;11.37;;;1.83;;
41721;SDS011;27407;24.142;-110.310;2024-03-23T10:08:23;12.93;;;1.53;;
41721;SDS011;27407;24.142;-110.310;2024-03-23T10:10:48;5.70;;;1.37;;
41721;SDS011;27407;24.142;-110.310;2024-03-23T10:13:25;13.07;;;1.97;;
41721;SDS011;27407;24.142;-110.310;2024-03-23T10:15:55;14.20;;;1.67;;
41721;SDS011;27407;24.142;-110.310;2024-03-23T10:18:23;12.43;;;1.47;;
41721;SDS011;27407;24.142;-110.310;2024-03-23T10:23:34;11.10;;;2.07;;
41721;SDS011;27407;24.142;-110.310;2024-03-23T10:31:28;25.63;;;3.13;;
41721;SDS011;27407;24.142;-110.310;2024-03-23T10:33:57;17.70;;;3.07;;
41721;SDS011;27407;24.142;-110.310;2024-03-23T10:36:24;37.20;;;3.43;;
41721;SDS011;27407;24.142;-110.310;2024-03-23T10:38:51;16.00;;;3.03;;
41721;SDS011;27407;24.142;-110.310;2024-03-23T10:41:20;14.73;;;2.73;;
41721;SDS011;27407;24.142;-110.310;2024-03-23T10:43:47;15.00;;;2.83;;
41721;SDS011;27407;24.142;-110.310;2024-03-23T10:46:15;17.70;;;3.40;;
41721;SDS011;27407;24.142;-110.310;2024-03-23T10:48:41;24.33;;;2.90;;
41721;SDS011;27407;24.142;-110.310;2024-03-23T10:51:09;16.97;;;2.77;;
41721;SDS011;27407;24.142;-110.310;2024-03-23T10:53:36;19.63;;;3.13;;
41721;SDS011;27407;24.142;-110.310;2024-03-23T10:56:03;14.00;;;2.27;;
41721;SDS011;27407;24.142;-110.310;2024-03-23T11:01:15;21.20;;;2.90;;
41721;SDS011;27407;24.142;-110.310;2024-03-23T11:03:46;11.73;;;2.20;;
41721;SDS011;27407;24.142;-110.310;2024-03-23T11:09:54;14.83;;;2.40;;
41721;SDS011;27407;24.142;-110.310;2024-03-23T11:12:34;19.63;;;2.10;;
41721;SDS011;27407;24.142;-110.310;2024-03-23T11:17:26;10.20;;;1.90;;
41721;SDS011;27407;24.142;-110.310;2024-03-23T11:19:59;16.93;;;2.80;;
41721;SDS011;27407;24.142;-110.310;2024-03-23T11:22:39;20.87;;;2.60;;
41721;SDS011;27407;24.142;-110.310;2024-03-23T11:25:14;13.73;;;2.20;;
41721;SDS011;27407;24.142;-110.310;2024-03-23T11:27:41;13.93;;;1.97;;
41721;SDS011;27407;24.142;-110.310;2024-03-23T11:30:12;7.80;;;1.67;;
41721;SDS011;27407;24.142;-110.310;2024-03-23T11:32:40;12.93;;;1.77;;
41721;SDS011;27407;24.142;-110.310;2024-03-23T11:35:30;13.70;;;2.17;;
41721;SDS011;27407;24.142;-110.310;2024-03-23T11:38:12;10.43;;;1.53;;
41721;SDS011;27407;24.142;-110.310;2024-03-23T11:40:41;9.67;;;1.33;;
41721;SDS011;27407;24.142;-110.310;2024-03-23T11:43:10;10.87;;;1.97;;
41721;SDS011;27407;24.142;-110.310;2024-03-23T11:45:45;9.30;;;1.53;;
41721;SDS011;27407;24.142;-110.310;2024-03-23T11:48:16;13.17;;;1.80;;
41721;SDS011;27407;24.142;-110.310;2024-03-23T11:50:48;10.20;;;1.80;;
41721;SDS011;27407;24.142;-110.310;2024-03-23T11:53:23;12.10;;;1.60;;
41721;SDS011;27407;24.142;-110.310;2024-03-23T11:55:56;5.50;;;1.17;;
41721;SDS011;27407;24.142;-110.310;2024-03-23T11:58:28;8.67;;;1.53;;
41721;SDS011;27407;24.142;-110.310;2024-03-23T12:01:04;7.67;;;1.80;;
41721;SDS011;27407;24.142;-110.310;2024-03-23T12:03:35;6.30;;;1.43;;
41721;SDS011;27407;24.142;-110.310;2024-03-23T12:06:03;6.57;;;1.37;;
41721;SDS011;27407;24.142;-110.310;2024-03-23T12:08:31;11.90;;;1.70;;
41721;SDS011;27407;24.142;-110.310;2024-03-23T12:11:11;11.40;;;1.60;;
41721;SDS011;27407;24.142;-110.310;2024-03-23T12:13:40;9.47;;;1.80;;
41721;SDS011;27407;24.142;-110.310;2024-03-23T12:16:16;8.33;;;1.77;;
41721;SDS011;27407;24.142;-110.310;2024-03-23T12:18:46;9.63;;;2.07;;
41721;SDS011;27407;24.142;-110.310;2024-03-23T12:21:16;5.90;;;1.47;;
41721;SDS011;27407;24.142;-110.310;2024-03-23T12:23:43;11.63;;;2.20;;
41721;SDS011;27407;24.142;-110.310;2024-03-23T12:26:12;13.50;;;1.57;;
41721;SDS011;27407;24.142;-110.310;2024-03-23T12:28:38;14.20;;;1.80;;
41721;SDS011;27407;24.142;-110.310;2024-03-23T12:31:05;5.30;;;1.50;;
41721;SDS011;27407;24.142;-110.310;2024-03-23T12:33:32;11.80;;;1.80;;
41721;SDS011;27407;24.142;-110.310;2024-03-23T12:35:58;23.27;;;2.40;;
41721;SDS011;27407;24.142;-110.310;2024-03-23T12:38:25;6.80;;;1.70;;
41721;SDS011;27407;24.142;-110.310;2024-03-23T12:40:52;13.27;;;1.80;;
41721;SDS011;27407;24.142;-110.310;2024-03-23T12:43:18;11.93;;;1.47;;
41721;SDS011;27407;24.142;-110.310;2024-03-23T12:45:48;10.60;;;2.03;;
41721;SDS011;27407;24.142;-110.310;2024-03-23T12:48:15;7.13;;;2.10;;
41721;SDS011;27407;24.142;-110.310;2024-03-23T12:50:42;23.80;;;2.47;;
41721;SDS011;27407;24.142;-110.310;2024-03-23T12:53:09;14.30;;;1.80;;
41721;SDS011;27407;24.142;-110.310;2024-03-23T12:55:35;11.13;;;1.83;;
41721;SDS011;27407;24.142;-110.310;2024-03-23T12:58:02;17.37;;;2.13;;
41721;SDS011;27407;24.142;-110.310;2024-03-23T13:00:30;12.87;;;2.00;;
41721;SDS011;27407;24.142;-110.310;2024-03-23T13:02:56;10.60;;;1.80;;
41721;SDS011;27407;24.142;-110.310;2024-03-23T13:05:23;9.17;;;1.80;;
41721;SDS011;27407;24.142;-110.310;2024-03-23T13:07:49;10.70;;;2.10;;
41721;SDS011;27407;24.142;-110.310;2024-03-23T13:10:16;10.27;;;2.07;;
41721;SDS011;27407;24.142;-110.310;2024-03-23T13:12:42;16.63;;;2.20;;
41721;SDS011;27407;24.142;-110.310;2024-03-23T13:15:09;8.07;;;1.87;;
41721;SDS011;27407;24.142;-110.310;2024-03-23T13:17:35;10.30;;;1.53;;
41721;SDS011;27407;24.142;-110.310;2024-03-23T13:20:02;11.10;;;2.10;;
41721;SDS011;27407;24.142;-110.310;2024-03-23T13:22:29;12.43;;;1.93;;
41721;SDS011;27407;24.142;-110.310;2024-03-23T13:24:56;17.60;;;2.40;;
41721;SDS011;27407;24.142;-110.310;2024-03-23T13:27:22;14.13;;;1.63;;
41721;SDS011;27407;24.142;-110.310;2024-03-23T13:29:49;10.37;;;2.07;;
41721;SDS011;27407;24.142;-110.310;2024-03-23T13:32:15;20.97;;;2.37;;
41721;SDS011;27407;24.142;-110.310;2024-03-23T13:34:42;8.93;;;1.73;;
41721;SDS011;27407;24.142;-110.310;2024-03-23T13:37:09;22.10;;;2.30;;
41721;SDS011;27407;24.142;-110.310;2024-03-23T13:39:36;21.57;;;2.27;;
41721;SDS011;27407;24.142;-110.310;2024-03-23T13:42:02;23.70;;;2.57;;
41721;SDS011;27407;24.142;-110.310;2024-03-23T13:44:29;14.10;;;2.13;;
41721;SDS011;27407;24.142;-110.310;2024-03-23T13:46:55;22.33;;;2.73;;
41721;SDS011;27407;24.142;-110.310;2024-03-23T13:49:26;21.73;;;3.10;;
41721;SDS011;27407;24.142;-110.310;2024-03-23T13:51:57;12.57;;;1.50;;
41721;SDS011;27407;24.142;-110.310;2024-03-23T13:54:25;15.03;;;1.90;;
41721;SDS011;27407;24.142;-110.310;2024-03-23T13:56:53;19.97;;;2.83;;
41721;SDS011;27407;24.142;-110.310;2024-03-23T13:59:21;16.80;;;2.17;;
41721;SDS011;27407;24.142;-110.310;2024-03-23T14:01:48;17.73;;;2.77;;
41721;SDS011;27407;24.142;-110.310;2024-03-23T14:04:18;14.93;;;3.40;;
41721;SDS011;27407;24.142;-110.310;2024-03-23T14:06:45;17.63;;;2.17;;
41721;SDS011;27407;24.142;-110.310;2024-03-23T14:09:12;13.73;;;2.63;;
41721;SDS011;27407;24.142;-110.310;2024-03-23T14:11:41;9.93;;;2.00;;
41721;SDS011;27407;24.142;-110.310;2024-03-23T14:14:09;30.23;;;2.50;;
41721;SDS011;27407;24.142;-110.310;2024-03-23T14:16:35;28.97;;;3.03;;
41721;SDS011;27407;24.142;-110.310;2024-03-23T14:19:02;19.10;;;2.87;;
41721;SDS011;27407;24.142;-110.310;2024-03-23T14:21:31;18.43;;;1.90;;
41721;SDS011;27407;24.142;-110.310;2024-03-23T14:23:57;13.33;;;2.30;;
41721;SDS011;27407;24.142;-110.310;2024-03-23T14:26:26;14.77;;;1.90;;
41721;SDS011;27407;24.142;-110.310;2024-03-23T14:28:53;10.97;;;1.83;;
41721;SDS011;27407;24.142;-110.310;2024-03-23T14:31:20;17.03;;;2.37;;
41721;SDS011;27407;24.142;-110.310;2024-03-23T14:33:47;8.23;;;1.43;;
41721;SDS011;27407;24.142;-110.310;2024-03-23T14:36:14;18.03;;;2.47;;
41721;SDS011;27407;24.142;-110.310;2024-03-23T14:38:41;15.37;;;2.00;;
41721;SDS011;27407;24.142;-110.310;2024-03-23T14:41:12;13.67;;;1.50;;
41721;SDS011;27407;24.142;-110.310;2024-03-23T14:43:39;20.47;;;2.40;;
41721;SDS011;27407;24.142;-110.310;2024-03-23T14:48:40;25.90;;;3.67;;
41721;SDS011;27407;24.142;-110.310;2024-03-23T14:51:08;37.07;;;3.73;;
41721;SDS011;27407;24.142;-110.310;2024-03-23T14:53:36;22.87;;;2.83;;
41721;SDS011;27407;24.142;-110.310;2024-03-23T14:56:05;34.07;;;2.70;;
41721;SDS011;27407;24.142;-110.310;2024-03-23T14:58:33;29.93;;;3.93;;
41721;SDS011;27407;24.142;-110.310;2024-03-23T15:01:01;24.93;;;2.97;;
41721;SDS011;27407;24.142;-110.310;2024-03-23T15:03:37;31.13;;;3.53;;
41721;SDS011;27407;24.142;-110.310;2024-03-23T15:06:05;29.17;;;3.30;;
41721;SDS011;27407;24.142;-110.310;2024-03-23T15:08:34;18.93;;;2.83;;
41721;SDS011;27407;24.142;-110.310;2024-03-23T15:11:02;18.20;;;2.90;;
41721;SDS011;27407;24.142;-110.310;2024-03-23T15:13:33;13.97;;;2.00;;